createdAt,value
2017-09-23T00:00:10.815Z,87.74
2017-09-23T00:02:45.401Z,87.69
2017-09-23T00:05:20.141Z,87.62
2017-09-23T00:07:54.827Z,87.96
2017-09-23T00:10:30.498Z,88.12
2017-09-23T00:13:05.247Z,88.28
2017-09-23T00:15:40.041Z,88.72
2017-09-23T00:18:15.779Z,88.77
2017-09-23T00:20:50.434Z,88.56
2017-09-23T00:23:25.087Z,88.44
2017-09-23T00:25:59.756Z,88.30
2017-09-23T00:28:34.623Z,88.18
2017-09-23T00:31:09.274Z,88.25
2017-09-23T00:33:43.957Z,88.52
2017-09-23T00:36:18.827Z,88.47
2017-09-23T00:38:53.706Z,88.17
2017-09-23T00:41:28.334Z,88.11
2017-09-23T00:44:02.821Z,88.09
2017-09-23T00:46:38.115Z,87.88
2017-09-23T00:49:12.746Z,87.62
2017-09-23T00:51:47.199Z,87.77
2017-09-23T00:54:21.911Z,87.84
2017-09-23T00:56:56.959Z,88.07
2017-09-23T00:59:31.689Z,88.29
2017-09-23T01:02:07.136Z,88.37
2017-09-23T01:04:41.547Z,88.34
2017-09-23T01:07:16.370Z,88.28
2017-09-23T01:09:51.727Z,88.23
2017-09-23T01:12:26.311Z,88.27
2017-09-23T01:15:01.240Z,88.41
2017-09-23T01:17:35.955Z,88.40
2017-09-23T01:20:10.681Z,88.60
2017-09-23T01:22:44.967Z,89.17
2017-09-23T01:25:19.340Z,88.92
2017-09-23T01:27:54.278Z,88.95
2017-09-23T01:30:29.086Z,89.15
2017-09-23T01:33:03.853Z,89.02
2017-09-23T01:35:38.868Z,88.84
2017-09-23T01:38:13.294Z,88.64
2017-09-23T01:40:48.139Z,88.52
2017-09-23T01:43:22.764Z,88.63
2017-09-23T01:45:57.398Z,88.69
2017-09-23T01:48:32.024Z,89.45
2017-09-23T01:51:07.035Z,90.60
2017-09-23T01:53:41.876Z,90.59
2017-09-23T01:56:17.111Z,90.33
2017-09-23T01:58:52.058Z,90.52
2017-09-23T02:01:26.607Z,90.18
2017-09-23T02:04:01.399Z,89.75
2017-09-23T02:06:36.001Z,89.56
2017-09-23T02:09:10.676Z,89.31
2017-09-23T02:11:45.463Z,89.28
2017-09-23T02:14:20.182Z,89.20
2017-09-23T02:16:55.187Z,89.83
2017-09-23T02:19:29.932Z,90.18
2017-09-23T02:22:04.758Z,90.26
2017-09-23T02:24:39.463Z,90.14
2017-09-23T02:27:14.087Z,89.93
2017-09-23T02:29:48.852Z,89.96
2017-09-23T02:32:23.485Z,89.87
2017-09-23T02:34:58.142Z,89.95
2017-09-23T02:37:32.803Z,89.99
2017-09-23T02:40:07.491Z,89.87
2017-09-23T02:42:42.178Z,89.84
2017-09-23T02:45:16.682Z,89.95
2017-09-23T02:47:52.409Z,89.91
2017-09-23T02:50:27.968Z,89.60
2017-09-23T02:53:02.695Z,89.84
2017-09-23T02:55:37.465Z,90.68
2017-09-23T02:58:12.546Z,89.68
2017-09-23T03:00:47.567Z,89.94
2017-09-23T03:03:22.386Z,90.17
2017-09-23T03:05:57.236Z,90.06
2017-09-23T03:08:32.047Z,90.22
2017-09-23T03:11:06.880Z,90.32
2017-09-23T03:13:42.472Z,89.89
2017-09-23T03:16:17.334Z,89.88
2017-09-23T03:18:52.273Z,90.38
2017-09-23T03:21:27.077Z,91.05
2017-09-23T03:24:01.787Z,90.79
2017-09-23T03:26:36.437Z,90.43
2017-09-23T03:29:11.042Z,90.23
2017-09-23T03:31:45.778Z,90.35
2017-09-23T03:34:20.703Z,90.51
2017-09-23T03:36:55.455Z,90.67
2017-09-23T03:39:30.246Z,91.00
2017-09-23T03:42:04.759Z,90.95
2017-09-23T03:44:39.640Z,90.94
2017-09-23T03:47:14.352Z,90.85
2017-09-23T03:49:48.899Z,90.71
2017-09-23T03:52:23.835Z,90.43
2017-09-23T03:54:58.452Z,90.24
2017-09-23T03:57:33.150Z,90.06
2017-09-23T04:00:08.639Z,89.94
2017-09-23T04:02:43.252Z,90.03
2017-09-23T04:05:18.771Z,89.82
2017-09-23T04:07:53.392Z,89.45
2017-09-23T04:10:29.107Z,89.20
2017-09-23T04:13:03.779Z,89.47
2017-09-23T04:15:38.395Z,90.00
2017-09-23T04:18:14.245Z,90.70
2017-09-23T04:20:49.111Z,91.30
2017-09-23T04:23:23.913Z,91.59
2017-09-23T04:25:58.646Z,91.69
2017-09-23T04:28:34.224Z,91.75
2017-09-23T04:31:08.811Z,91.78
2017-09-23T04:33:44.401Z,91.65
2017-09-23T04:36:19.162Z,92.33
2017-09-23T04:38:53.688Z,92.43
2017-09-23T04:41:29.278Z,92.58
2017-09-23T04:44:03.899Z,92.33
2017-09-23T04:46:38.570Z,92.13
2017-09-23T04:49:13.078Z,91.84
2017-09-23T04:51:47.779Z,92.09
2017-09-23T04:54:22.735Z,92.30
2017-09-23T04:56:57.683Z,92.33
2017-09-23T04:59:32.677Z,92.37
2017-09-23T05:02:07.382Z,92.39
2017-09-23T05:04:42.104Z,92.71
2017-09-23T05:07:16.827Z,92.80
2017-09-23T05:09:51.458Z,92.86
2017-09-23T05:12:26.283Z,93.05
2017-09-23T05:15:00.860Z,93.48
2017-09-23T05:17:35.577Z,94.44
2017-09-23T05:20:10.401Z,94.92
2017-09-23T05:22:45.254Z,94.89
2017-09-23T05:25:19.925Z,94.76
2017-09-23T05:27:54.464Z,94.57
2017-09-23T05:30:29.163Z,94.75
2017-09-23T05:33:03.836Z,94.76
2017-09-23T05:35:38.033Z,94.49
2017-09-23T05:38:12.951Z,94.39
2017-09-23T05:40:47.851Z,94.30
2017-09-23T05:43:22.563Z,94.17
2017-09-23T05:45:57.384Z,94.05
2017-09-23T05:48:33.012Z,94.12
2017-09-23T05:51:07.659Z,94.17
2017-09-23T05:53:42.496Z,94.35
2017-09-23T05:56:17.274Z,94.35
2017-09-23T05:58:52.172Z,94.35
2017-09-23T06:01:27.002Z,94.45
2017-09-23T06:04:01.926Z,94.53
2017-09-23T06:06:37.036Z,94.50
2017-09-23T06:09:11.648Z,94.79
2017-09-23T06:11:46.391Z,95.03
2017-09-23T06:14:21.163Z,95.80
2017-09-23T06:16:56.814Z,95.89
2017-09-23T06:19:31.559Z,95.70
2017-09-23T06:22:06.088Z,95.80
2017-09-23T06:24:41.703Z,96.06
2017-09-23T06:27:16.571Z,96.17
2017-09-23T06:29:51.070Z,96.35
2017-09-23T06:32:25.876Z,96.28
2017-09-23T06:35:00.699Z,96.51
2017-09-23T06:37:35.502Z,96.17
2017-09-23T06:40:10.442Z,95.96
2017-09-23T06:42:45.235Z,95.79
2017-09-23T06:45:20.227Z,95.65
2017-09-23T06:47:55.298Z,95.58
2017-09-23T06:50:30.298Z,94.54
2017-09-23T06:53:04.910Z,94.56
2017-09-23T06:55:39.472Z,94.49
2017-09-23T06:58:14.152Z,95.03
2017-09-23T07:00:49.093Z,95.71
2017-09-23T07:03:23.574Z,96.13
2017-09-23T07:05:58.415Z,96.43
2017-09-23T07:08:33.044Z,96.87
2017-09-23T07:11:07.555Z,96.78
2017-09-23T07:13:42.403Z,96.27
2017-09-23T07:16:17.113Z,95.90
2017-09-23T07:18:52.706Z,95.63
2017-09-23T07:21:27.056Z,96.22
2017-09-23T07:24:02.179Z,95.83
2017-09-23T07:26:37.407Z,95.29
2017-09-23T07:29:11.975Z,95.14
2017-09-23T07:31:47.285Z,95.35
2017-09-23T07:34:22.299Z,94.96
2017-09-23T07:36:57.090Z,94.82
2017-09-23T07:39:31.710Z,94.80
2017-09-23T07:42:06.143Z,95.01
2017-09-23T07:44:40.742Z,95.15
2017-09-23T07:47:16.270Z,95.15
2017-09-23T07:49:51.199Z,94.98
2017-09-23T07:52:26.090Z,94.73
2017-09-23T07:55:01.177Z,94.46
2017-09-23T07:57:35.811Z,94.46
2017-09-23T08:00:10.267Z,94.34
2017-09-23T08:02:45.231Z,94.19
2017-09-23T08:05:19.992Z,93.66
2017-09-23T08:07:54.815Z,93.75
2017-09-23T08:10:29.551Z,94.26
2017-09-23T08:13:03.862Z,94.63
2017-09-23T08:15:39.111Z,94.47
2017-09-23T08:18:13.930Z,94.11
2017-09-23T08:20:48.440Z,93.71
2017-09-23T08:23:23.516Z,93.45
2017-09-23T08:25:58.215Z,93.27
2017-09-23T08:28:32.999Z,92.96
2017-09-23T08:31:07.606Z,92.63
2017-09-23T08:33:42.314Z,92.03
2017-09-23T08:36:18.163Z,91.37
2017-09-23T08:38:52.907Z,90.89
2017-09-23T08:41:27.489Z,91.07
2017-09-23T08:44:02.718Z,90.89
2017-09-23T08:46:37.424Z,90.88
2017-09-23T08:49:12.173Z,90.78
2017-09-23T08:51:46.883Z,90.36
2017-09-23T08:54:21.795Z,90.03
2017-09-23T08:56:56.911Z,89.69
2017-09-23T08:59:31.564Z,89.03
2017-09-23T09:02:06.330Z,88.85
2017-09-23T09:04:41.019Z,89.09
2017-09-23T09:07:15.807Z,88.50
2017-09-23T09:09:50.521Z,87.94
2017-09-23T09:12:26.263Z,88.23
2017-09-23T09:15:01.250Z,87.53
2017-09-23T09:17:36.071Z,87.41
2017-09-23T09:20:11.295Z,87.47
2017-09-23T09:22:45.930Z,86.60
2017-09-23T09:25:20.900Z,87.18
2017-09-23T09:27:55.990Z,86.99
2017-09-23T09:30:30.745Z,86.39
2017-09-23T09:33:05.138Z,85.61
2017-09-23T09:35:40.377Z,85.28
2017-09-23T09:38:15.026Z,84.82
2017-09-23T09:40:50.067Z,84.91
2017-09-23T09:43:24.789Z,84.64
2017-09-23T09:45:59.623Z,83.95
2017-09-23T09:48:34.316Z,84.39
2017-09-23T09:51:09.030Z,84.54
2017-09-23T09:53:43.725Z,85.20
2017-09-23T09:56:18.562Z,84.95
2017-09-23T09:58:53.552Z,84.95
2017-09-23T10:01:28.661Z,84.43
2017-09-23T10:04:03.519Z,83.30
2017-09-23T10:06:38.337Z,83.02
2017-09-23T10:09:12.997Z,82.68
2017-09-23T10:11:47.769Z,81.83
2017-09-23T10:14:22.823Z,82.31
2017-09-23T10:16:57.639Z,82.15
2017-09-23T10:19:32.147Z,82.25
2017-09-23T10:22:07.115Z,82.34
2017-09-23T10:24:41.839Z,82.82
2017-09-23T10:27:16.346Z,83.10
2017-09-23T10:29:51.638Z,82.99
2017-09-23T10:32:26.355Z,83.17
2017-09-23T10:35:01.057Z,82.88
2017-09-23T10:37:35.928Z,82.08
2017-09-23T10:40:10.673Z,81.21
2017-09-23T10:42:45.309Z,80.28
2017-09-23T10:45:19.774Z,79.44
2017-09-23T10:47:54.547Z,79.07
2017-09-23T10:50:29.156Z,78.59
2017-09-23T10:53:03.591Z,77.98
2017-09-23T10:55:38.527Z,78.38
2017-09-23T10:58:13.471Z,78.13
2017-09-23T11:00:48.485Z,78.22
2017-09-23T11:03:23.424Z,77.11
2017-09-23T11:05:58.222Z,77.04
2017-09-23T11:08:32.855Z,76.81
2017-09-23T11:11:07.575Z,77.44
2017-09-23T11:13:42.295Z,77.13
2017-09-23T11:16:16.802Z,77.19
2017-09-23T11:18:52.595Z,75.84
2017-09-23T11:21:27.097Z,76.22
2017-09-23T11:24:01.903Z,74.26
2017-09-23T11:26:36.550Z,71.82
2017-09-23T11:29:11.160Z,71.27
2017-09-23T11:31:45.911Z,71.79
2017-09-23T11:34:20.824Z,72.13
2017-09-23T11:36:56.526Z,71.55
2017-09-23T11:39:30.999Z,70.15
2017-09-23T11:42:05.554Z,71.70
2017-09-23T11:44:40.079Z,71.25
2017-09-23T11:47:14.903Z,71.50
2017-09-23T11:49:49.632Z,72.09
2017-09-23T11:52:25.367Z,71.38
2017-09-23T11:55:00.047Z,71.09
2017-09-23T11:57:34.671Z,71.29
2017-09-23T12:00:09.403Z,71.17
2017-09-23T12:02:44.190Z,71.03
2017-09-23T12:05:18.801Z,71.04
2017-09-23T12:07:53.499Z,69.20
2017-09-23T12:10:28.194Z,69.13
2017-09-23T12:13:02.592Z,68.93
2017-09-23T12:15:37.495Z,67.13
2017-09-23T12:18:12.118Z,65.96
2017-09-23T12:20:46.719Z,65.25
2017-09-23T12:23:22.342Z,64.56
2017-09-23T12:25:56.989Z,64.99
2017-09-23T12:28:31.612Z,65.00
2017-09-23T12:31:06.376Z,64.96
2017-09-23T12:33:41.030Z,65.44
2017-09-23T12:36:16.607Z,66.60
2017-09-23T12:38:51.326Z,67.19
2017-09-23T12:41:26.082Z,67.29
2017-09-23T12:44:00.735Z,67.31
2017-09-23T12:46:35.549Z,67.36
2017-09-23T12:49:11.293Z,67.84
2017-09-23T12:51:46.751Z,68.13
2017-09-23T12:54:21.561Z,68.22
2017-09-23T12:56:56.182Z,68.20
2017-09-23T12:59:30.726Z,68.64
2017-09-23T13:02:05.606Z,68.83
2017-09-23T13:04:40.551Z,68.61
2017-09-23T13:07:15.418Z,68.32
2017-09-23T13:09:50.229Z,68.06
2017-09-23T13:12:24.855Z,68.11
2017-09-23T13:14:59.531Z,68.25
2017-09-23T13:17:34.225Z,68.42
2017-09-23T13:20:09.057Z,67.89
2017-09-23T13:22:43.899Z,67.09
2017-09-23T13:25:18.720Z,66.08
2017-09-23T13:27:53.475Z,66.54
2017-09-23T13:30:27.998Z,65.78
2017-09-23T13:33:03.613Z,64.80
2017-09-23T13:35:38.149Z,65.04
2017-09-23T13:38:12.892Z,65.08
2017-09-23T13:40:49.146Z,64.26
2017-09-23T13:43:24.440Z,64.32
2017-09-23T13:45:59.497Z,64.63
2017-09-23T13:48:34.279Z,64.69
2017-09-23T13:51:09.017Z,65.17
2017-09-23T13:53:43.615Z,65.17
2017-09-23T13:56:18.354Z,63.28
2017-09-23T13:58:52.884Z,62.89
2017-09-23T14:01:27.716Z,63.08
2017-09-23T14:04:03.404Z,63.74
2017-09-23T14:06:38.683Z,64.40
2017-09-23T14:09:13.709Z,64.68
2017-09-23T14:11:48.634Z,65.14
2017-09-23T14:14:22.952Z,65.32
2017-09-23T14:16:58.267Z,65.69
2017-09-23T14:19:33.075Z,65.66
2017-09-23T14:22:07.879Z,65.14
2017-09-23T14:24:42.797Z,64.77
2017-09-23T14:27:17.584Z,65.48
2017-09-23T14:29:52.314Z,65.61
2017-09-23T14:32:27.321Z,65.02
2017-09-23T14:35:01.920Z,65.31
2017-09-23T14:37:36.414Z,65.61
2017-09-23T14:40:11.082Z,65.90
2017-09-23T14:42:45.827Z,66.57
2017-09-23T14:45:20.635Z,66.43
2017-09-23T14:47:55.416Z,65.78
2017-09-23T14:50:30.167Z,65.12
2017-09-23T14:53:04.897Z,64.14
2017-09-23T14:55:39.500Z,63.95
2017-09-23T14:58:14.305Z,65.44
2017-09-23T15:00:49.930Z,66.04
2017-09-23T15:03:25.576Z,65.40
2017-09-23T15:06:00.440Z,65.03
2017-09-23T15:08:35.055Z,65.40
2017-09-23T15:11:09.747Z,65.70
2017-09-23T15:13:44.336Z,66.59
2017-09-23T15:16:18.926Z,66.86
2017-09-23T15:18:53.731Z,67.49
2017-09-23T15:21:28.473Z,67.76
2017-09-23T15:24:03.781Z,67.97
2017-09-23T15:26:38.295Z,70.07
2017-09-23T15:29:13.020Z,70.89
2017-09-23T15:31:47.718Z,72.13
2017-09-23T15:34:22.328Z,74.01
2017-09-23T15:36:57.167Z,74.92
2017-09-23T15:39:31.908Z,75.27
2017-09-23T15:42:06.812Z,75.70
2017-09-23T15:44:41.841Z,75.94
2017-09-23T15:47:16.274Z,76.58
2017-09-23T15:49:51.124Z,76.31
2017-09-23T15:52:25.959Z,77.49
2017-09-23T15:55:00.660Z,77.56
2017-09-23T15:57:35.233Z,78.28
2017-09-23T16:00:09.868Z,78.26
2017-09-23T16:02:44.489Z,78.31
2017-09-23T16:05:19.274Z,78.82
2017-09-23T16:07:54.104Z,78.59
2017-09-23T16:10:28.706Z,78.77
2017-09-23T16:13:03.810Z,78.65
2017-09-23T16:15:38.631Z,78.73
2017-09-23T16:18:13.287Z,78.29
2017-09-23T16:20:48.305Z,78.52
2017-09-23T16:23:23.018Z,78.25
2017-09-23T16:25:57.754Z,78.14
2017-09-23T16:28:32.455Z,78.44
2017-09-23T16:31:07.281Z,78.66
2017-09-23T16:33:41.945Z,78.86
2017-09-23T16:36:16.929Z,79.18
2017-09-23T16:38:51.755Z,79.49
2017-09-23T16:41:26.505Z,79.88
2017-09-23T16:44:01.217Z,80.27
2017-09-23T16:46:36.055Z,80.41
2017-09-23T16:49:10.611Z,80.41
2017-09-23T16:51:45.327Z,80.55
2017-09-23T16:54:20.009Z,80.71
2017-09-23T16:56:54.848Z,80.93
2017-09-23T16:59:29.695Z,80.85
2017-09-23T17:02:04.486Z,80.54
2017-09-23T17:04:40.294Z,80.38
2017-09-23T17:07:15.142Z,80.49
2017-09-23T17:09:50.744Z,80.46
2017-09-23T17:12:25.459Z,80.59
2017-09-23T17:15:00.639Z,81.21
2017-09-23T17:17:35.667Z,82.12
2017-09-23T17:20:10.276Z,82.40
2017-09-23T17:22:44.842Z,82.73
2017-09-23T17:25:19.398Z,82.68
2017-09-23T17:27:54.108Z,82.42
2017-09-23T17:30:28.915Z,82.17
2017-09-23T17:33:03.757Z,82.00
2017-09-23T17:35:38.352Z,81.87
2017-09-23T17:38:13.299Z,81.77
2017-09-23T17:40:48.123Z,82.11
2017-09-23T17:43:22.758Z,82.49
2017-09-23T17:45:57.588Z,82.84
2017-09-23T17:48:32.612Z,83.43
2017-09-23T17:51:07.571Z,83.44
2017-09-23T17:53:42.451Z,83.52
2017-09-23T17:56:18.037Z,83.85
2017-09-23T17:58:52.755Z,84.18
2017-09-23T18:01:27.475Z,84.27
2017-09-23T18:04:02.269Z,84.53
2017-09-23T18:06:36.892Z,84.97
2017-09-23T18:09:11.745Z,85.00
2017-09-23T18:11:46.397Z,85.23
2017-09-23T18:14:21.224Z,85.15
2017-09-23T18:16:56.164Z,85.59
2017-09-23T18:19:30.878Z,85.74
2017-09-23T18:22:05.655Z,85.84
2017-09-23T18:24:40.153Z,85.82
2017-09-23T18:27:14.751Z,86.17
2017-09-23T18:29:49.462Z,86.33
2017-09-23T18:32:24.232Z,86.38
2017-09-23T18:34:59.051Z,86.38
2017-09-23T18:37:33.903Z,86.40
2017-09-23T18:40:08.711Z,86.15
2017-09-23T18:42:43.543Z,85.90
2017-09-23T18:45:19.050Z,85.80
2017-09-23T18:47:54.092Z,85.68
2017-09-23T18:50:28.901Z,85.69
2017-09-23T18:53:03.795Z,86.02
2017-09-23T18:55:38.558Z,86.12
2017-09-23T18:58:13.372Z,86.11
2017-09-23T19:00:48.028Z,86.15
2017-09-23T19:03:22.712Z,86.02
2017-09-23T19:05:57.439Z,86.09
2017-09-23T19:08:32.086Z,86.32
2017-09-23T19:11:06.699Z,86.79
2017-09-23T19:13:41.334Z,86.96
2017-09-23T19:16:16.933Z,87.13
2017-09-23T19:18:51.666Z,87.27
2017-09-23T19:21:26.753Z,87.26
2017-09-23T19:24:02.487Z,87.15
2017-09-23T19:26:37.116Z,87.37
2017-09-23T19:29:11.820Z,87.36
2017-09-23T19:31:46.206Z,87.57
2017-09-23T19:34:20.975Z,87.84
2017-09-23T19:36:55.674Z,87.97
2017-09-23T19:39:30.607Z,87.92
2017-09-23T19:42:05.356Z,88.27
2017-09-23T19:44:39.908Z,88.61
2017-09-23T19:47:14.516Z,88.37
2017-09-23T19:49:58.381Z,88.37
2017-09-23T19:52:33.220Z,88.36
2017-09-23T19:55:08.352Z,88.57
2017-09-23T19:57:43.203Z,88.63
2017-09-23T20:00:19.665Z,88.61
2017-09-23T20:02:54.268Z,88.70
2017-09-23T20:05:28.987Z,88.53
2017-09-23T20:08:03.771Z,88.63
2017-09-23T20:10:38.710Z,88.74
2017-09-23T20:13:13.399Z,88.90
2017-09-23T20:15:48.141Z,88.93
2017-09-23T20:18:22.786Z,88.96
2017-09-23T20:20:57.228Z,88.92
2017-09-23T20:23:32.111Z,88.72
2017-09-23T20:26:06.839Z,88.74
2017-09-23T20:28:41.550Z,88.83
2017-09-23T20:31:17.214Z,88.84
2017-09-23T20:33:51.855Z,88.90
2017-09-23T20:36:26.491Z,88.97
2017-09-23T20:39:01.187Z,88.96
2017-09-23T20:41:35.814Z,88.85
2017-09-23T20:44:10.561Z,88.75
2017-09-23T20:46:45.514Z,88.73
2017-09-23T20:49:20.241Z,88.65
2017-09-23T20:51:55.041Z,88.42
2017-09-23T20:54:29.955Z,88.56
2017-09-23T20:57:04.886Z,88.64
2017-09-23T20:59:39.595Z,88.55
2017-09-23T21:02:14.515Z,88.52
2017-09-23T21:04:49.247Z,88.87
2017-09-23T21:07:24.123Z,88.81
2017-09-23T21:09:58.927Z,88.86
2017-09-23T21:12:33.430Z,88.84
2017-09-23T21:15:08.139Z,88.71
2017-09-23T21:17:42.862Z,88.71
2017-09-23T21:20:17.752Z,88.86
2017-09-23T21:22:52.478Z,89.03
2017-09-23T21:25:27.514Z,88.97
2017-09-23T21:28:03.086Z,88.98
2017-09-23T21:30:38.146Z,88.99
2017-09-23T21:33:12.975Z,88.91
2017-09-23T21:35:48.119Z,88.94
2017-09-23T21:38:23.543Z,88.94
2017-09-23T21:40:58.143Z,88.98
2017-09-23T21:43:32.933Z,88.99
2017-09-23T21:46:07.747Z,88.83
2017-09-23T21:48:43.370Z,88.67
2017-09-23T21:51:18.131Z,88.56
2017-09-23T21:53:52.955Z,88.47
2017-09-23T21:56:27.811Z,88.24
2017-09-23T21:59:02.633Z,88.17
2017-09-23T22:01:37.243Z,88.12
2017-09-23T22:04:11.976Z,88.12
2017-09-23T22:06:46.656Z,88.18
2017-09-23T22:09:21.476Z,88.23
2017-09-23T22:11:56.212Z,88.35
2017-09-23T22:14:30.716Z,88.43
2017-09-23T22:17:05.339Z,88.45
2017-09-23T22:19:40.059Z,88.51
2017-09-23T22:22:14.852Z,88.68
2017-09-23T22:24:49.876Z,88.68
2017-09-23T22:27:24.673Z,88.63
2017-09-23T22:29:59.503Z,88.54
2017-09-23T22:32:34.120Z,88.67
2017-09-23T22:35:09.012Z,88.73
2017-09-23T22:37:43.623Z,88.91
2017-09-23T22:40:19.244Z,89.07
2017-09-23T22:42:54.179Z,89.31
2017-09-23T22:45:28.919Z,89.57
2017-09-23T22:48:03.780Z,89.58
2017-09-23T22:50:38.403Z,89.44
2017-09-23T22:53:13.191Z,89.20
2017-09-23T22:55:47.853Z,89.00
2017-09-23T22:58:22.600Z,88.97
2017-09-23T23:00:57.170Z,88.97
2017-09-23T23:03:32.175Z,88.93
2017-09-23T23:06:06.830Z,88.79
2017-09-23T23:08:42.309Z,88.46
2017-09-23T23:11:17.911Z,88.17
2017-09-23T23:13:52.577Z,88.44
2017-09-23T23:16:27.196Z,88.68
2017-09-23T23:19:01.904Z,88.87
2017-09-23T23:21:36.346Z,88.97
2017-09-23T23:24:11.452Z,88.96
2017-09-23T23:26:46.381Z,89.27
2017-09-23T23:29:21.057Z,89.35
2017-09-23T23:31:55.836Z,89.27
2017-09-23T23:34:30.538Z,89.27
2017-09-23T23:37:05.626Z,89.26
2017-09-23T23:39:40.500Z,89.27
2017-09-23T23:42:15.216Z,89.17
2017-09-23T23:44:50.027Z,89.28
2017-09-23T23:47:24.880Z,89.32
2017-09-23T23:49:59.635Z,89.28
2017-09-23T23:52:34.143Z,89.39
2017-09-23T23:55:08.779Z,89.89
2017-09-23T23:57:43.451Z,90.08
